Time;durP1;ratioP1;P1;durP2;ratioP2;P2;SDS_P1;SDS_P2;PMS_P1;PMS_P2;Temp;Humidity;BMP_temperature;BMP_pressure;BME280_temperature;BME280_humidity;BME280_pressure;Samples;Min_cycle;Max_cycle;Signal;HPM_P1;HPM_P2
2021/08/01 00:01:41;;;;;;;18.63;9.60;;;14.10;99.90;;;;;;5104717;28;20215;-66
2021/08/01 00:04:10;;;;;;;17.37;10.17;;;14.10;99.90;;;;;;5106169;28;20788;-66
2021/08/01 00:06:38;;;;;;;17.50;10.20;;;14.00;99.90;;;;;;5105123;28;20249;-66
2021/08/01 00:09:06;;;;;;;15.10;9.23;;;14.00;99.90;;;;;;5104338;28;20279;-66
2021/08/01 00:11:35;;;;;;;21.07;9.97;;;14.10;99.90;;;;;;5104431;28;20619;-66
2021/08/01 00:14:03;;;;;;;21.30;9.83;;;14.00;99.90;;;;;;5106142;28;20277;-66
2021/08/01 00:16:33;;;;;;;20.83;10.60;;;14.00;99.90;;;;;;5105703;28;20222;-66
2021/08/01 00:19:02;;;;;;;17.43;10.07;;;13.90;99.90;;;;;;5103618;28;20531;-66
2021/08/01 00:21:31;;;;;;;20.87;10.20;;;13.90;99.90;;;;;;5102493;28;20593;-66
2021/08/01 00:24:02;;;;;;;14.80;9.40;;;13.90;99.90;;;;;;5105406;28;20221;-66
2021/08/01 00:26:30;;;;;;;16.70;9.90;;;13.90;99.90;;;;;;5105460;28;20191;-66
2021/08/01 00:28:58;;;;;;;18.60;9.87;;;13.90;99.90;;;;;;5104960;28;20191;-66
2021/08/01 00:31:27;;;;;;;19.13;9.83;;;13.80;99.90;;;;;;5101737;28;20191;-66
2021/08/01 00:33:57;;;;;;;18.93;10.07;;;13.80;99.90;;;;;;5105001;28;20737;-66
2021/08/01 00:36:26;;;;;;;22.30;10.07;;;13.70;99.90;;;;;;5104218;28;20225;-66
2021/08/01 00:38:54;;;;;;;23.13;10.13;;;13.70;99.90;;;;;;5105919;27;20226;-66
2021/08/01 00:41:22;;;;;;;17.00;9.73;;;13.70;99.90;;;;;;5101630;28;20638;-66
2021/08/01 00:43:50;;;;;;;16.57;9.50;;;13.60;99.90;;;;;;5103364;28;20635;-66
2021/08/01 00:46:19;;;;;;;19.77;9.50;;;13.60;99.90;;;;;;5100721;28;20222;-66
2021/08/01 00:48:47;;;;;;;22.90;10.37;;;13.60;99.90;;;;;;5099937;28;20195;-66
2021/08/01 00:51:17;;;;;;;21.00;10.40;;;13.50;99.90;;;;;;5104295;28;20719;-66
2021/08/01 00:53:47;;;;;;;18.63;10.23;;;13.50;99.90;;;;;;5103547;28;20252;-66
2021/08/01 00:56:17;;;;;;;23.50;10.23;;;13.50;99.90;;;;;;5103267;28;20322;-66
2021/08/01 00:58:45;;;;;;;22.83;10.07;;;13.40;99.90;;;;;;5101724;28;20226;-66
2021/08/01 01:01:18;;;;;;;24.73;10.50;;;13.40;99.90;;;;;;5103055;28;20290;-66
2021/08/01 01:03:56;;;;;;;25.70;10.47;;;13.30;99.90;;;;;;5102607;28;20570;-66
2021/08/01 01:06:35;;;;;;;20.53;10.20;;;13.30;99.90;;;;;;5102901;28;20217;-66
2021/08/01 01:09:06;;;;;;;24.23;9.90;;;13.30;99.90;;;;;;5101582;28;20799;-66
2021/08/01 01:11:39;;;;;;;21.63;9.67;;;13.30;99.90;;;;;;5102598;28;20681;-65
2021/08/01 01:14:11;;;;;;;30.20;10.83;;;13.30;99.90;;;;;;5102843;28;20215;-66
2021/08/01 01:16:43;;;;;;;21.17;9.83;;;13.20;99.90;;;;;;5106181;28;20226;-66
2021/08/01 01:19:28;;;;;;;22.50;10.27;;;13.20;99.90;;;;;;5103726;28;20700;-66
2021/08/01 01:22:06;;;;;;;21.87;9.77;;;13.20;99.90;;;;;;5105364;28;20298;-66
2021/08/01 01:24:38;;;;;;;20.03;9.47;;;13.20;99.90;;;;;;5105558;28;20309;-66
2021/08/01 01:27:13;;;;;;;26.53;10.27;;;13.20;99.90;;;;;;5099878;28;20299;-66
2021/08/01 01:29:46;;;;;;;24.43;10.43;;;13.30;99.90;;;;;;5101558;28;20872;-65
2021/08/01 01:32:22;;;;;;;21.40;10.43;;;13.30;99.90;;;;;;5105733;28;20282;-66
2021/08/01 01:34:59;;;;;;;20.07;9.97;;;13.30;99.90;;;;;;5105185;28;20222;-66
2021/08/01 01:37:30;;;;;;;25.97;10.57;;;13.40;99.90;;;;;;5100868;28;20230;-66
2021/08/01 01:40:01;;;;;;;27.80;10.67;;;13.40;99.90;;;;;;5101949;28;20190;-66
2021/08/01 01:42:30;;;;;;;24.07;10.70;;;13.50;99.90;;;;;;5100272;28;20281;-66
2021/08/01 01:45:00;;;;;;;32.43;11.57;;;13.50;99.90;;;;;;5105904;28;20291;-66
2021/08/01 01:47:29;;;;;;;19.73;10.10;;;13.50;99.90;;;;;;5103008;28;20705;-66
2021/08/01 01:50:00;;;;;;;26.87;10.67;;;13.50;99.90;;;;;;5103784;28;20215;-66
2021/08/01 01:52:31;;;;;;;30.50;10.27;;;13.50;99.90;;;;;;5101062;28;20190;-66
2021/08/01 01:55:03;;;;;;;27.60;10.57;;;13.50;99.90;;;;;;5104455;28;20191;-66
2021/08/01 01:57:31;;;;;;;26.53;9.67;;;13.60;99.90;;;;;;5086433;28;20304;-66
2021/08/01 02:00:02;;;;;;;21.73;10.03;;;13.60;99.90;;;;;;5093355;28;20278;-66
2021/08/01 02:02:30;;;;;;;29.93;10.60;;;13.60;99.90;;;;;;5088433;28;20222;-66
2021/08/01 02:04:59;;;;;;;28.00;10.30;;;13.70;99.90;;;;;;5088145;28;20303;-66
2021/08/01 02:07:30;;;;;;;27.33;10.03;;;13.70;99.90;;;;;;5091002;28;20236;-66
2021/08/01 02:10:03;;;;;;;22.07;10.07;;;13.70;99.90;;;;;;5087346;28;20665;-66
2021/08/01 02:12:36;;;;;;;24.63;10.00;;;13.70;99.90;;;;;;5085012;28;20261;-66
2021/08/01 02:15:08;;;;;;;29.70;10.60;;;13.70;99.90;;;;;;5088874;28;20257;-65
2021/08/01 02:17:44;;;;;;;22.33;9.57;;;13.70;99.90;;;;;;5084395;28;20282;-66
2021/08/01 02:20:14;;;;;;;25.60;9.67;;;13.80;99.90;;;;;;5086810;28;20241;-66
2021/08/01 02:22:45;;;;;;;30.40;10.43;;;13.70;99.90;;;;;;5102432;28;21649;-66
2021/08/01 02:25:17;;;;;;;26.73;9.43;;;13.70;99.90;;;;;;5087052;28;20293;-66
2021/08/01 02:27:47;;;;;;;30.70;9.20;;;13.80;99.90;;;;;;5086921;28;20546;-66
2021/08/01 02:30:17;;;;;;;29.03;9.83;;;13.70;99.90;;;;;;5086581;28;20192;-66
2021/08/01 02:32:47;;;;;;;21.43;9.43;;;13.70;99.90;;;;;;5089420;28;20194;-66
2021/08/01 02:35:16;;;;;;;26.43;10.63;;;13.80;99.90;;;;;;5087022;28;20283;-66
2021/08/01 02:37:47;;;;;;;24.80;10.50;;;13.80;99.90;;;;;;5084866;28;20305;-66
2021/08/01 02:40:15;;;;;;;30.03;9.63;;;13.70;99.90;;;;;;5089976;28;20594;-66
2021/08/01 02:42:45;;;;;;;21.27;9.43;;;13.80;99.90;;;;;;5085560;28;20187;-66
2021/08/01 02:45:14;;;;;;;30.17;10.13;;;13.70;99.90;;;;;;5101803;28;20228;-65
2021/08/01 02:47:45;;;;;;;27.87;10.10;;;13.70;99.90;;;;;;5068369;28;20195;-66
2021/08/01 02:50:16;;;;;;;22.73;9.87;;;13.80;99.90;;;;;;5084529;28;20188;-66
2021/08/01 02:52:55;;;;;;;29.40;9.83;;;13.80;99.90;;;;;;5088777;28;20278;-66
2021/08/01 02:55:26;;;;;;;21.47;9.57;;;13.70;99.90;;;;;;5086954;28;20286;-66
2021/08/01 02:57:58;;;;;;;23.03;9.60;;;13.80;99.90;;;;;;5088419;28;20738;-65
2021/08/01 03:00:30;;;;;;;30.33;10.50;;;13.80;99.90;;;;;;5064440;28;20525;-66
2021/08/01 03:03:42;;;;;;;26.00;10.27;;;13.90;99.90;;;;;;5085495;28;20203;-65
2021/08/01 03:06:11;;;;;;;31.67;10.23;;;13.90;99.90;;;;;;5087349;28;20298;-66
2021/08/01 03:08:41;;;;;;;32.70;10.07;;;13.90;99.90;;;;;;5086383;28;20563;-66
2021/08/01 03:11:12;;;;;;;18.97;9.70;;;13.90;99.90;;;;;;5086034;28;20821;-66
2021/08/01 03:13:41;;;;;;;28.43;9.83;;;13.80;99.90;;;;;;5084680;28;20397;-66
2021/08/01 03:16:09;;;;;;;29.30;10.50;;;13.90;99.90;;;;;;5084444;28;20317;-66
2021/08/01 03:18:37;;;;;;;22.77;9.70;;;13.90;99.90;;;;;;5091605;28;20194;-66
2021/08/01 03:21:05;;;;;;;26.00;10.17;;;13.90;99.90;;;;;;5084197;28;20196;-66
2021/08/01 03:23:34;;;;;;;20.50;9.97;;;13.80;99.90;;;;;;5090024;28;20187;-66
2021/08/01 03:26:03;;;;;;;23.03;9.30;;;13.90;99.90;;;;;;5083445;28;20235;-65
2021/08/01 03:28:31;;;;;;;25.47;9.10;;;13.80;99.90;;;;;;5085924;28;20218;-65
2021/08/01 03:31:00;;;;;;;21.20;9.93;;;13.90;99.90;;;;;;5080328;28;20234;-66
2021/08/01 03:33:28;;;;;;;24.23;9.60;;;13.80;99.90;;;;;;5090778;28;20190;-65
2021/08/01 03:35:56;;;;;;;27.90;10.13;;;13.80;99.90;;;;;;5085390;28;20212;-65
2021/08/01 03:38:24;;;;;;;28.23;10.13;;;13.80;99.90;;;;;;5091697;28;20270;-66
2021/08/01 03:40:53;;;;;;;23.93;9.83;;;13.80;99.90;;;;;;5084465;28;20245;-66
2021/08/01 03:43:22;;;;;;;20.60;10.17;;;13.90;99.90;;;;;;5087006;28;20282;-66
2021/08/01 03:45:50;;;;;;;27.33;10.93;;;13.80;99.90;;;;;;5085397;28;20310;-65
2021/08/01 03:48:19;;;;;;;26.33;10.53;;;13.80;99.90;;;;;;5086096;28;20277;-65
2021/08/01 03:50:47;;;;;;;29.83;10.07;;;13.80;99.90;;;;;;5084745;28;20191;-65
2021/08/01 03:53:15;;;;;;;26.50;11.37;;;13.80;99.90;;;;;;5088469;28;20287;-66
2021/08/01 03:55:43;;;;;;;25.20;11.50;;;13.90;99.90;;;;;;5090025;28;20215;-66
2021/08/01 03:58:11;;;;;;;26.30;12.63;;;13.80;99.90;;;;;;5085935;28;20278;-65
2021/08/01 04:00:46;;;;;;;29.13;12.27;;;13.80;99.90;;;;;;5080708;28;20229;-65
2021/08/01 04:03:15;;;;;;;30.07;12.97;;;13.80;99.90;;;;;;5082383;28;20199;-66
2021/08/01 04:05:44;;;;;;;30.00;12.67;;;13.80;99.90;;;;;;5082878;28;20682;-65
2021/08/01 04:08:12;;;;;;;30.80;13.33;;;13.70;99.90;;;;;;5102228;28;20192;-66
2021/08/01 04:10:41;;;;;;;31.87;13.40;;;13.70;99.90;;;;;;5083080;28;20187;-65
2021/08/01 04:13:50;;;;;;;31.90;13.43;;;13.70;99.90;;;;;;5084604;28;20222;-66
2021/08/01 04:17:00;;;;;;;28.17;13.10;;;13.70;99.90;;;;;;5081759;28;20227;-65
2021/08/01 04:19:29;;;;;;;38.23;14.53;;;13.70;99.90;;;;;;5084600;28;20554;-65
2021/08/01 04:21:57;;;;;;;31.90;14.57;;;13.70;99.90;;;;;;5079724;28;20219;-66
2021/08/01 04:24:25;;;;;;;30.13;13.80;;;13.70;99.90;;;;;;5085463;28;20685;-65
2021/08/01 04:26:53;;;;;;;31.40;13.30;;;13.70;99.90;;;;;;5084482;28;20781;-65
2021/08/01 04:29:22;;;;;;;27.63;13.27;;;13.70;99.90;;;;;;5087617;28;20234;-65
2021/08/01 04:31:50;;;;;;;24.67;13.53;;;13.70;99.90;;;;;;5083274;28;20187;-65
2021/08/01 04:34:19;;;;;;;28.43;13.27;;;13.70;99.90;;;;;;5085983;28;20953;-65
2021/08/01 04:36:48;;;;;;;38.07;14.53;;;13.70;99.90;;;;;;5084094;28;20192;-65
2021/08/01 04:39:16;;;;;;;29.00;14.10;;;13.70;99.90;;;;;;5084316;28;20226;-65
2021/08/01 04:41:44;;;;;;;31.17;13.17;;;13.80;99.90;;;;;;5083377;28;20765;-65
2021/08/01 04:44:12;;;;;;;32.47;13.27;;;13.80;99.90;;;;;;5087352;28;20724;-65
2021/08/01 04:46:42;;;;;;;33.57;13.60;;;13.80;99.90;;;;;;5083591;28;20247;-65
2021/08/01 04:49:13;;;;;;;25.57;12.80;;;13.80;99.90;;;;;;5085289;28;20282;-65
2021/08/01 04:51:43;;;;;;;23.83;12.90;;;13.90;99.90;;;;;;5084515;28;20229;-65
2021/08/01 04:54:11;;;;;;;36.33;13.10;;;13.90;99.90;;;;;;5085092;28;20219;-65
2021/08/01 04:56:43;;;;;;;30.60;13.23;;;13.90;99.90;;;;;;5093286;28;20180;-65
2021/08/01 04:59:12;;;;;;;25.87;13.77;;;14.00;99.90;;;;;;5085934;28;20278;-65
2021/08/01 05:01:40;;;;;;;28.03;12.33;;;14.00;99.90;;;;;;5085281;28;20294;-65
2021/08/01 05:04:09;;;;;;;28.13;13.60;;;14.00;99.90;;;;;;5084390;28;20582;-65
2021/08/01 05:06:37;;;;;;;29.20;12.70;;;14.00;99.90;;;;;;5082666;28;20235;-65
2021/08/01 05:09:07;;;;;;;32.60;13.50;;;14.10;99.90;;;;;;5088013;28;20283;-66
2021/08/01 05:11:35;;;;;;;27.37;12.60;;;14.00;99.90;;;;;;5085699;28;20290;-65
2021/08/01 05:14:03;;;;;;;30.97;12.93;;;14.10;99.90;;;;;;5084401;28;20261;-65
2021/08/01 05:16:34;;;;;;;28.63;14.20;;;14.10;99.90;;;;;;5083336;28;20219;-65
2021/08/01 05:19:02;;;;;;;39.83;14.00;;;14.20;99.90;;;;;;5083192;28;20199;-65
2021/08/01 05:21:31;;;;;;;31.33;13.37;;;14.20;99.90;;;;;;5081396;28;20284;-65
2021/08/01 05:23:59;;;;;;;36.30;13.73;;;14.20;99.90;;;;;;5082920;28;20249;-65
2021/08/01 05:26:29;;;;;;;35.53;14.23;;;14.30;99.90;;;;;;5083013;28;20298;-65
2021/08/01 05:28:57;;;;;;;31.57;14.30;;;14.30;99.90;;;;;;5082180;28;20294;-65
2021/08/01 05:31:26;;;;;;;28.07;13.57;;;14.40;99.90;;;;;;5087010;28;20222;-65
2021/08/01 05:33:54;;;;;;;39.37;14.10;;;14.50;99.90;;;;;;5086691;28;20191;-65
2021/08/01 05:36:22;;;;;;;27.20;12.83;;;14.60;99.90;;;;;;5089414;28;20642;-65
2021/08/01 05:38:50;;;;;;;33.40;12.83;;;14.80;99.90;;;;;;5089165;28;20188;-65
2021/08/01 05:41:20;;;;;;;30.63;13.47;;;14.80;99.90;;;;;;5088261;28;20198;-65
2021/08/01 05:43:50;;;;;;;22.87;13.00;;;14.90;99.90;;;;;;5087562;28;20240;-65
2021/08/01 05:46:18;;;;;;;24.47;13.10;;;14.90;99.90;;;;;;5089063;28;20237;-65
2021/08/01 05:48:47;;;;;;;25.40;13.03;;;14.90;99.90;;;;;;5088269;28;20201;-65
2021/08/01 05:51:15;;;;;;;29.90;12.97;;;14.90;99.90;;;;;;5088071;28;20284;-65
2021/08/01 05:53:43;;;;;;;25.13;12.70;;;15.00;99.90;;;;;;5085451;28;20200;-65
2021/08/01 05:56:12;;;;;;;27.10;12.23;;;15.00;99.90;;;;;;5085345;28;20272;-65
2021/08/01 05:58:42;;;;;;;18.17;11.00;;;15.10;99.90;;;;;;5088461;28;20195;-65
2021/08/01 06:01:12;;;;;;;27.03;11.70;;;15.20;99.90;;;;;;5083923;28;20286;-65
2021/08/01 06:03:42;;;;;;;23.57;11.60;;;15.20;99.90;;;;;;5088024;28;20269;-64
2021/08/01 06:06:12;;;;;;;22.00;11.67;;;15.20;99.90;;;;;;5088726;28;20211;-65
2021/08/01 06:08:41;;;;;;;28.87;12.23;;;15.20;99.90;;;;;;5088183;28;20290;-65
2021/08/01 06:11:10;;;;;;;23.10;10.97;;;15.20;99.90;;;;;;5085166;28;20199;-65
2021/08/01 06:13:39;;;;;;;24.27;11.57;;;15.20;99.90;;;;;;5086778;28;20192;-65
2021/08/01 06:16:08;;;;;;;28.70;11.37;;;15.30;99.90;;;;;;5088610;28;20274;-65
2021/08/01 06:18:39;;;;;;;27.80;11.70;;;15.30;99.90;;;;;;5088107;28;20191;-64
2021/08/01 06:21:08;;;;;;;24.10;11.80;;;15.40;99.90;;;;;;5085168;28;20759;-65
2021/08/01 06:23:39;;;;;;;17.80;10.83;;;15.40;99.90;;;;;;5088244;28;20278;-65
2021/08/01 06:26:07;;;;;;;23.33;11.00;;;15.50;99.90;;;;;;5086488;28;20651;-64
2021/08/01 06:28:35;;;;;;;18.33;10.97;;;15.70;99.90;;;;;;5088703;28;20192;-65
2021/08/01 06:31:04;;;;;;;28.43;10.67;;;15.80;99.90;;;;;;5086183;28;20280;-65
2021/08/01 06:33:34;;;;;;;22.47;10.90;;;15.80;99.90;;;;;;5087968;28;20194;-65
2021/08/01 06:36:08;;;;;;;21.60;10.23;;;15.90;99.90;;;;;;5084924;28;20199;-64
2021/08/01 06:38:36;;;;;;;26.20;10.43;;;16.00;99.90;;;;;;5086887;28;20607;-65
2021/08/01 06:41:06;;;;;;;20.67;10.73;;;16.00;99.90;;;;;;5086612;28;20198;-65
2021/08/01 06:43:35;;;;;;;18.97;9.40;;;16.10;99.90;;;;;;5085572;28;20287;-65
2021/08/01 06:46:03;;;;;;;20.13;9.57;;;16.00;99.90;;;;;;5086970;28;20221;-65
2021/08/01 06:48:32;;;;;;;22.37;9.73;;;16.10;99.90;;;;;;5086591;28;20331;-65
2021/08/01 06:51:01;;;;;;;22.03;10.00;;;16.10;99.90;;;;;;5082519;28;20205;-65
2021/08/01 06:53:31;;;;;;;17.43;8.87;;;16.20;99.90;;;;;;5089603;28;20188;-65
2021/08/01 06:56:00;;;;;;;19.37;9.53;;;16.20;99.90;;;;;;5085659;28;20220;-64
2021/08/01 06:58:28;;;;;;;19.07;8.93;;;16.20;99.90;;;;;;5088234;28;20283;-65
2021/08/01 07:00:56;;;;;;;16.97;9.87;;;16.30;99.90;;;;;;5082488;28;20290;-64
2021/08/01 07:03:27;;;;;;;21.30;9.53;;;16.40;99.90;;;;;;5085726;28;20187;-65
2021/08/01 07:05:56;;;;;;;22.67;10.20;;;16.50;99.90;;;;;;5085616;28;20480;-64
2021/08/01 07:08:24;;;;;;;15.47;9.50;;;16.50;99.90;;;;;;5082154;28;20284;-65
2021/08/01 07:10:54;;;;;;;24.97;10.60;;;16.60;99.90;;;;;;5085177;28;20253;-65
2021/08/01 07:13:22;;;;;;;21.70;10.33;;;16.60;99.90;;;;;;5086372;28;20192;-65
2021/08/01 07:15:51;;;;;;;22.40;10.83;;;16.60;99.90;;;;;;5085878;28;20230;-65
2021/08/01 07:18:19;;;;;;;17.33;9.93;;;16.60;99.90;;;;;;5091283;28;20719;-65
2021/08/01 07:20:48;;;;;;;28.37;11.57;;;16.60;99.90;;;;;;5084928;28;20776;-65
2021/08/01 07:23:16;;;;;;;26.43;10.80;;;16.70;99.90;;;;;;5085989;28;20270;-65
2021/08/01 07:25:44;;;;;;;23.20;11.60;;;16.60;99.90;;;;;;5089054;28;20284;-64
2021/08/01 07:28:14;;;;;;;25.13;11.23;;;16.70;99.90;;;;;;5097163;28;20291;-64
2021/08/01 07:30:42;;;;;;;22.10;11.43;;;16.70;99.90;;;;;;5096316;28;20251;-65
2021/08/01 07:33:10;;;;;;;23.73;11.23;;;16.80;99.90;;;;;;5087787;28;20314;-65
2021/08/01 07:35:38;;;;;;;17.40;10.83;;;16.80;99.90;;;;;;5090308;28;20274;-64
2021/08/01 07:38:07;;;;;;;20.30;10.90;;;16.90;99.90;;;;;;5091635;28;20282;-65
2021/08/01 07:40:35;;;;;;;19.73;11.23;;;17.10;99.90;;;;;;5090282;28;20228;-65
2021/08/01 07:43:04;;;;;;;27.90;11.43;;;17.20;99.90;;;;;;5085490;28;20290;-65
2021/08/01 07:45:35;;;;;;;22.13;11.60;;;17.30;99.90;;;;;;5088138;28;20223;-65
2021/08/01 07:48:04;;;;;;;15.87;10.70;;;17.50;99.90;;;;;;5079386;28;20213;-65
2021/08/01 07:50:32;;;;;;;16.57;9.80;;;17.60;99.90;;;;;;5090700;28;20194;-65
2021/08/01 07:53:01;;;;;;;19.13;10.97;;;17.70;99.90;;;;;;5077022;28;20722;-65
2021/08/01 07:55:30;;;;;;;17.30;10.70;;;17.80;99.90;;;;;;5079395;28;20188;-65
2021/08/01 07:57:58;;;;;;;15.43;10.37;;;17.90;99.90;;;;;;5082787;28;20196;-65
2021/08/01 08:00:26;;;;;;;20.43;11.77;;;18.00;99.90;;;;;;5082457;28;20223;-65
2021/08/01 08:02:56;;;;;;;23.23;11.40;;;18.30;99.90;;;;;;5076713;28;20294;-65
2021/08/01 08:05:24;;;;;;;22.10;12.33;;;18.20;99.90;;;;;;5075098;28;20223;-65
2021/08/01 08:07:53;;;;;;;22.77;13.43;;;18.10;99.90;;;;;;5082176;28;20200;-65
2021/08/01 08:10:22;;;;;;;18.23;12.03;;;18.00;99.90;;;;;;5083408;28;20274;-65
2021/08/01 08:12:51;;;;;;;20.37;12.40;;;17.80;99.90;;;;;;5082997;28;20674;-64
2021/08/01 08:15:19;;;;;;;18.93;12.43;;;17.80;99.90;;;;;;5083152;28;20219;-65
2021/08/01 08:17:47;;;;;;;16.87;11.77;;;17.80;99.90;;;;;;5086724;28;20281;-65
2021/08/01 08:20:17;;;;;;;19.57;13.33;;;17.80;99.90;;;;;;5091438;28;20278;-65
2021/08/01 08:22:46;;;;;;;24.00;14.23;;;17.80;99.90;;;;;;5089148;28;20734;-65
2021/08/01 08:25:14;;;;;;;20.07;12.60;;;17.80;99.90;;;;;;5084650;28;20275;-65
2021/08/01 08:27:43;;;;;;;19.17;13.47;;;18.00;99.90;;;;;;5083127;28;21317;-65
2021/08/01 08:30:12;;;;;;;18.10;14.40;;;18.00;99.90;;;;;;5077823;28;20275;-65
2021/08/01 08:32:41;;;;;;;19.00;14.27;;;17.90;99.90;;;;;;5078958;28;20289;-65
2021/08/01 08:35:10;;;;;;;20.17;15.13;;;17.80;99.90;;;;;;5071200;28;20192;-65
2021/08/01 08:37:50;;;;;;;30.77;15.70;;;17.70;99.90;;;;;;5080758;28;20270;-64
2021/08/01 08:40:21;;;;;;;21.53;14.60;;;17.60;99.90;;;;;;5076393;28;20220;-65
2021/08/01 08:42:49;;;;;;;18.80;14.33;;;17.70;99.90;;;;;;5077915;28;20233;-64
2021/08/01 08:45:18;;;;;;;21.67;14.57;;;17.80;99.90;;;;;;5078489;28;20903;-65
2021/08/01 08:47:48;;;;;;;22.37;14.80;;;17.70;99.90;;;;;;5077173;28;20211;-64
2021/08/01 08:50:19;;;;;;;24.40;15.23;;;17.70;99.90;;;;;;5081214;28;20320;-64
2021/08/01 08:52:54;;;;;;;20.17;15.30;;;17.70;99.90;;;;;;5079448;28;20264;-65
2021/08/01 08:55:27;;;;;;;22.87;14.63;;;17.80;99.90;;;;;;5079192;28;20225;-64
2021/08/01 08:58:00;;;;;;;26.63;16.33;;;17.90;99.90;;;;;;5083578;28;20273;-65
2021/08/01 09:00:29;;;;;;;24.23;14.77;;;18.20;99.90;;;;;;5086754;28;20183;-65
2021/08/01 09:02:58;;;;;;;26.37;15.93;;;18.50;99.90;;;;;;5080481;28;20258;-65
2021/08/01 09:05:27;;;;;;;24.00;15.53;;;18.70;99.90;;;;;;5081040;28;20330;-64
2021/08/01 09:07:57;;;;;;;19.40;14.43;;;19.00;99.90;;;;;;5096914;28;20222;-65
2021/08/01 09:10:27;;;;;;;17.07;13.70;;;19.30;99.90;;;;;;5083403;28;20184;-65
2021/08/01 09:12:55;;;;;;;20.83;13.00;;;19.50;99.90;;;;;;5084196;28;20215;-65
2021/08/01 09:15:25;;;;;;;17.63;11.87;;;19.90;99.90;;;;;;5082825;28;20214;-65
2021/08/01 09:17:55;;;;;;;18.40;10.43;;;20.60;99.90;;;;;;5079880;28;20280;-65
2021/08/01 09:20:26;;;;;;;14.63;9.50;;;21.30;99.90;;;;;;5086458;28;20287;-65
2021/08/01 09:23:11;;;;;;;13.67;9.30;;;21.60;99.90;;;;;;5084833;28;20224;-65
2021/08/01 09:25:42;;;;;;;10.67;8.13;;;21.80;99.90;;;;;;5088141;28;20205;-65
2021/08/01 09:28:13;;;;;;;9.87;8.10;;;22.10;99.90;;;;;;5087100;28;20289;-65
2021/08/01 09:30:50;;;;;;;9.27;7.60;;;21.60;99.90;;;;;;5089175;28;20670;-65
2021/08/01 09:33:32;;;;;;;10.03;8.20;;;21.30;99.90;;;;;;5088137;28;20199;-65
2021/08/01 09:36:09;;;;;;;9.93;7.47;;;21.00;99.90;;;;;;5084646;28;20650;-64
2021/08/01 09:38:48;;;;;;;9.63;7.40;;;21.00;99.90;;;;;;5088872;28;20188;-64
2021/08/01 09:41:19;;;;;;;8.10;6.90;;;20.90;99.90;;;;;;5087037;28;20277;-64
2021/08/01 09:43:50;;;;;;;8.37;7.30;;;20.70;99.90;;;;;;5085817;28;20196;-64
2021/08/01 09:46:18;;;;;;;11.33;7.77;;;20.50;99.90;;;;;;5086795;28;20233;-64
2021/08/01 09:48:47;;;;;;;9.90;8.30;;;20.20;99.90;;;;;;5087638;28;20305;-64
2021/08/01 09:51:17;;;;;;;9.67;8.70;;;20.10;99.90;;;;;;5081075;28;20702;-64
2021/08/01 09:53:58;;;;;;;9.30;8.43;;;20.10;99.90;;;;;;5087462;28;20281;-64
2021/08/01 09:56:26;;;;;;;8.47;7.00;;;20.20;99.90;;;;;;5078151;28;20242;-64
2021/08/01 09:58:54;;;;;;;7.60;6.87;;;20.10;99.90;;;;;;5080665;28;20183;-64
2021/08/01 10:01:23;;;;;;;6.87;6.03;;;20.10;99.90;;;;;;5081164;28;20645;-65
2021/08/01 10:03:51;;;;;;;12.43;6.57;;;20.00;99.90;;;;;;5083986;28;20188;-65
2021/08/01 10:06:21;;;;;;;9.27;6.50;;;20.00;99.90;;;;;;5091372;28;20188;-65
2021/08/01 10:08:52;;;;;;;7.13;6.43;;;20.20;99.90;;;;;;5096757;28;20209;-65
2021/08/01 10:11:23;;;;;;;8.07;6.07;;;20.40;99.90;;;;;;5083909;28;20420;-65
2021/08/01 10:13:54;;;;;;;8.53;6.10;;;20.90;99.90;;;;;;5088616;28;20195;-65
2021/08/01 10:16:23;;;;;;;9.07;7.43;;;21.20;99.90;;;;;;5084935;28;20269;-65
2021/08/01 10:18:52;;;;;;;7.90;7.30;;;21.50;99.90;;;;;;5081729;28;20215;-65
2021/08/01 10:21:22;;;;;;;9.60;8.80;;;21.70;99.90;;;;;;5086351;28;20191;-65
2021/08/01 10:23:57;;;;;;;7.90;7.30;;;21.20;99.90;;;;;;5081814;28;20281;-65
2021/08/01 10:26:32;;;;;;;7.57;6.97;;;20.60;99.90;;;;;;5082073;28;20190;-65
2021/08/01 10:29:01;;;;;;;7.07;6.10;;;20.10;99.90;;;;;;5084596;28;20264;-65
2021/08/01 10:31:34;;;;;;;4.07;3.10;;;19.70;99.90;;;;;;5081593;28;20199;-64
2021/08/01 10:34:12;;;;;;;2.67;2.57;;;19.40;99.90;;;;;;5084896;28;20219;-64
2021/08/01 10:36:52;;;;;;;2.90;2.70;;;19.00;99.90;;;;;;5079164;28;20195;-65
2021/08/01 10:39:27;;;;;;;2.87;2.77;;;18.70;99.90;;;;;;5075663;28;20216;-64
2021/08/01 10:41:56;;;;;;;2.60;2.50;;;18.50;99.90;;;;;;5075773;28;20188;-65
2021/08/01 10:44:25;;;;;;;2.90;2.70;;;18.20;99.90;;;;;;5087526;28;20184;-65
2021/08/01 10:46:53;;;;;;;2.60;2.50;;;18.10;99.90;;;;;;5077633;28;20662;-65
2021/08/01 10:49:22;;;;;;;2.13;2.13;;;18.00;99.90;;;;;;5086493;28;20267;-65
2021/08/01 10:51:50;;;;;;;1.97;1.97;;;17.80;99.90;;;;;;5078629;28;20728;-65
2021/08/01 10:54:32;;;;;;;1.97;1.97;;;17.70;99.90;;;;;;5081756;28;20738;-65
2021/08/01 10:57:15;;;;;;;2.17;2.07;;;17.70;99.90;;;;;;5082916;28;20231;-65
2021/08/01 11:00:06;;;;;;;2.40;2.30;;;17.60;99.90;;;;;;5077550;28;20231;-65
2021/08/01 11:02:35;;;;;;;2.60;2.50;;;17.60;99.90;;;;;;5083459;28;20567;-66
2021/08/01 11:05:39;;;;;;;2.73;2.63;;;17.50;99.90;;;;;;5081675;28;20199;-66
2021/08/01 11:08:09;;;;;;;3.20;3.00;;;17.40;99.90;;;;;;5081303;28;20191;-66
2021/08/01 11:10:41;;;;;;;3.13;2.97;;;17.50;99.90;;;;;;5082490;28;20306;-66
2021/08/01 11:13:38;;;;;;;3.30;3.13;;;17.50;99.90;;;;;;5079728;28;20195;-66
2021/08/01 11:16:09;;;;;;;3.20;3.00;;;17.60;99.90;;;;;;5078881;28;20223;-65
2021/08/01 11:18:39;;;;;;;4.17;3.87;;;17.60;99.90;;;;;;5080630;28;20236;-66
2021/08/01 11:21:09;;;;;;;4.50;4.20;;;17.60;99.90;;;;;;5082818;28;20195;-66
2021/08/01 11:24:17;;;;;;;7.87;4.10;;;17.60;99.90;;;;;;5076844;28;20195;-65
2021/08/01 11:27:13;;;;;;;5.00;4.70;;;17.50;99.90;;;;;;5081875;28;20199;-66
2021/08/01 11:30:03;;;;;;;5.43;5.00;;;17.50;99.90;;;;;;5077564;28;20240;-66
2021/08/01 11:32:51;;;;;;;6.00;5.50;;;17.40;99.90;;;;;;5083136;28;20657;-66
2021/08/01 11:35:24;;;;;;;5.43;5.00;;;17.40;99.90;;;;;;5077974;28;20230;-66
2021/08/01 11:38:10;;;;;;;6.80;6.20;;;17.40;99.90;;;;;;5076684;28;20647;-66
2021/08/01 11:40:47;;;;;;;7.33;6.73;;;17.50;99.90;;;;;;5075547;28;20277;-66
2021/08/01 11:43:17;;;;;;;7.53;6.80;;;17.50;99.90;;;;;;5073368;28;20279;-66
2021/08/01 11:46:01;;;;;;;7.90;7.10;;;17.50;99.90;;;;;;5077578;28;20214;-66
2021/08/01 11:48:30;;;;;;;10.27;8.03;;;17.60;99.90;;;;;;5077815;28;20183;-65
2021/08/01 11:50:58;;;;;;;8.70;7.80;;;17.80;99.90;;;;;;5080392;28;20243;-65
2021/08/01 11:53:27;;;;;;;8.47;7.63;;;17.90;99.90;;;;;;5085289;28;20191;-65
2021/08/01 11:55:59;;;;;;;7.17;6.67;;;18.00;99.90;;;;;;5082232;28;20195;-66
2021/08/01 11:58:31;;;;;;;6.40;5.80;;;18.10;99.90;;;;;;5091263;28;20199;-65
2021/08/01 12:01:01;;;;;;;5.30;4.90;;;18.20;99.90;;;;;;5084997;28;20215;-65
2021/08/01 12:03:32;;;;;;;5.47;5.07;;;18.30;99.90;;;;;;5085936;28;20191;-66
2021/08/01 12:06:00;;;;;;;5.50;5.10;;;18.60;99.90;;;;;;5086210;28;20223;-65
2021/08/01 12:08:32;;;;;;;5.53;4.97;;;18.60;99.90;;;;;;5079331;28;20230;-65
2021/08/01 12:11:22;;;;;;;4.90;4.60;;;18.70;99.90;;;;;;5081340;28;20296;-65
2021/08/01 12:14:09;;;;;;;5.67;5.27;;;19.00;99.90;;;;;;5075375;28;20757;-65
2021/08/01 12:16:38;;;;;;;5.30;4.80;;;19.10;99.90;;;;;;5074515;28;20223;-65
2021/08/01 12:19:14;;;;;;;4.80;4.40;;;19.10;99.90;;;;;;5075946;28;20273;-65
2021/08/01 12:21:43;;;;;;;4.80;4.50;;;19.20;99.90;;;;;;5078780;28;20284;-65
2021/08/01 12:24:28;;;;;;;5.00;4.70;;;19.40;99.90;;;;;;5079406;28;20270;-65
2021/08/01 12:27:00;;;;;;;4.80;4.40;;;19.40;99.90;;;;;;5079261;28;20506;-65
2021/08/01 12:29:31;;;;;;;5.10;4.70;;;19.60;99.90;;;;;;5078603;28;20210;-65
2021/08/01 12:32:01;;;;;;;5.10;4.60;;;19.50;99.90;;;;;;5084823;28;20661;-65
2021/08/01 12:34:29;;;;;;;5.57;5.03;;;19.60;99.90;;;;;;5076853;28;20222;-65
2021/08/01 12:37:04;;;;;;;4.93;4.67;;;19.70;99.90;;;;;;5092712;28;20274;-65
2021/08/01 12:39:32;;;;;;;5.47;5.07;;;19.60;99.90;;;;;;5087320;28;20271;-65
2021/08/01 12:42:02;;;;;;;6.07;5.43;;;19.50;99.90;;;;;;5077775;28;20231;-65
2021/08/01 12:44:32;;;;;;;5.60;5.23;;;19.60;99.90;;;;;;5089276;28;20231;-65
2021/08/01 12:47:07;;;;;;;5.80;5.40;;;19.50;99.90;;;;;;5087336;28;20604;-65
2021/08/01 12:49:35;;;;;;;6.37;5.97;;;19.50;99.90;;;;;;5085853;28;20218;-65
2021/08/01 12:52:04;;;;;;;6.20;5.80;;;19.30;99.90;;;;;;5091341;28;20252;-65
2021/08/01 12:54:33;;;;;;;7.27;6.77;;;19.20;99.90;;;;;;5081638;28;20273;-65